Time;durP1;ratioP1;P1;durP2;ratioP2;P2;SDS_P1;SDS_P2;PMS_P1;PMS_P2;Temp;Humidity;BMP_temperature;BMP_pressure;BME280_temperature;BME280_humidity;BME280_pressure;Samples;Min_cycle;Max_cycle;Signal;HPM_P1;HPM_P2
2023/05/03 00:00:16;;;;;;;2.50;2.20;;;15.20;75.70;;;;;;6053262;23;20439;-66
2023/05/03 00:02:45;;;;;;;2.70;1.90;;;15.20;75.90;;;;;;6030564;23;20508;-65
2023/05/03 00:05:13;;;;;;;3.50;3.00;;;15.20;75.90;;;;;;6028715;23;20460;-65
2023/05/03 00:07:43;;;;;;;3.30;2.00;;;15.20;75.80;;;;;;6031436;23;20428;-65
2023/05/03 00:10:14;;;;;;;2.93;2.50;;;15.20;75.90;;;;;;6029597;23;20531;-65
2023/05/03 00:12:44;;;;;;;2.90;2.30;;;15.20;75.80;;;;;;6030549;23;20423;-65
2023/05/03 00:15:12;;;;;;;3.70;2.20;;;15.20;75.90;;;;;;6029354;23;20439;-66
2023/05/03 00:17:40;;;;;;;5.63;2.20;;;15.20;76.00;;;;;;6030194;23;20496;-65
2023/05/03 00:20:10;;;;;;;3.17;2.20;;;15.20;75.90;;;;;;6030229;23;20666;-66
2023/05/03 00:22:39;;;;;;;3.23;2.30;;;15.20;75.80;;;;;;6031107;23;20432;-66
2023/05/03 00:25:08;;;;;;;2.93;2.13;;;15.20;75.90;;;;;;6030642;23;20844;-66
2023/05/03 00:27:38;;;;;;;3.93;2.07;;;15.20;75.90;;;;;;6031990;23;20413;-65
2023/05/03 00:30:08;;;;;;;3.70;2.13;;;15.20;76.00;;;;;;6031541;23;20957;-66
2023/05/03 00:32:36;;;;;;;2.97;2.37;;;15.20;76.20;;;;;;6030732;23;20412;-65
2023/05/03 00:35:06;;;;;;;3.40;2.10;;;15.20;76.10;;;;;;6030529;23;20448;-65
2023/05/03 00:37:35;;;;;;;2.90;2.20;;;15.20;76.20;;;;;;6031889;23;20385;-65
2023/05/03 00:40:04;;;;;;;5.70;2.40;;;15.20;76.00;;;;;;6156851;23;20519;-66
2023/05/03 00:42:35;;;;;;;3.53;2.30;;;15.20;76.10;;;;;;6007701;23;20425;-66
2023/05/03 00:45:05;;;;;;;3.60;2.67;;;15.20;75.90;;;;;;6030048;23;20809;-64
2023/05/03 00:47:34;;;;;;;5.43;2.67;;;15.10;77.20;;;;;;6031050;23;20467;-65
2023/05/03 00:50:04;;;;;;;3.30;2.97;;;15.10;77.20;;;;;;6031649;23;20437;-66
2023/05/03 00:52:33;;;;;;;2.93;2.47;;;15.10;75.80;;;;;;6031627;23;20479;-65
2023/05/03 00:55:02;;;;;;;5.83;2.30;;;15.10;76.00;;;;;;6029764;23;20432;-66
2023/05/03 00:57:31;;;;;;;5.10;2.63;;;15.10;75.80;;;;;;6030918;23;20405;-65
2023/05/03 00:59:59;;;;;;;3.90;2.53;;;15.10;75.90;;;;;;6031998;23;20417;-67
2023/05/03 01:02:29;;;;;;;2.77;2.10;;;15.10;75.90;;;;;;6030571;23;20467;-66
2023/05/03 01:04:58;;;;;;;2.60;2.17;;;15.10;76.00;;;;;;6056501;23;20439;-65
2023/05/03 01:07:37;;;;;;;3.47;1.90;;;15.10;76.10;;;;;;6031275;23;20718;-66
2023/05/03 01:10:17;;;;;;;3.40;2.63;;;15.10;76.00;;;;;;6030443;23;20869;-66
2023/05/03 01:12:55;;;;;;;2.77;1.93;;;15.10;76.00;;;;;;6031528;23;20895;-66
2023/05/03 01:15:36;;;;;;;5.70;2.37;;;15.10;76.00;;;;;;6030085;23;20444;-66
2023/05/03 01:18:12;;;;;;;4.50;2.33;;;15.10;75.80;;;;;;6030749;23;20471;-64
2023/05/03 01:20:43;;;;;;;4.33;2.43;;;15.10;76.10;;;;;;6030996;23;20767;-66
2023/05/03 01:23:18;;;;;;;3.27;2.23;;;15.10;76.10;;;;;;6031729;23;20946;-66
2023/05/03 01:25:50;;;;;;;2.43;2.10;;;15.10;76.10;;;;;;6053305;23;20491;-65
2023/05/03 01:28:19;;;;;;;4.13;2.40;;;15.10;75.90;;;;;;6032117;23;20393;-65
2023/05/03 01:30:49;;;;;;;3.03;2.70;;;15.10;75.70;;;;;;6029933;23;20447;-66
2023/05/03 01:33:24;;;;;;;2.20;1.80;;;15.00;75.90;;;;;;6031990;23;20930;-65
2023/05/03 01:35:55;;;;;;;2.77;2.37;;;15.00;75.80;;;;;;6030509;23;20918;-66
2023/05/03 01:38:24;;;;;;;2.23;1.80;;;15.00;76.00;;;;;;6031586;23;20374;-65
2023/05/03 01:40:58;;;;;;;3.23;2.37;;;15.00;75.90;;;;;;6006366;23;20998;-66
2023/05/03 01:43:27;;;;;;;2.77;2.40;;;15.00;75.80;;;;;;6055490;23;20427;-65
2023/05/03 01:45:55;;;;;;;3.13;2.10;;;15.00;76.10;;;;;;6052886;23;20441;-66
2023/05/03 01:48:24;;;;;;;2.67;2.20;;;15.00;76.00;;;;;;6032030;23;20473;-66
2023/05/03 01:50:52;;;;;;;2.40;1.90;;;15.00;76.00;;;;;;6031291;23;20821;-66
2023/05/03 01:53:20;;;;;;;6.00;2.73;;;15.00;76.10;;;;;;6031621;23;20430;-65
2023/05/03 01:55:49;;;;;;;7.50;2.97;;;15.00;76.10;;;;;;6028398;23;20918;-64
2023/05/03 01:58:18;;;;;;;2.50;2.30;;;15.00;76.00;;;;;;6031359;23;20401;-65
2023/05/03 02:00:47;;;;;;;3.90;2.10;;;15.00;75.90;;;;;;6029999;23;20942;-66
2023/05/03 02:03:16;;;;;;;3.13;2.47;;;15.00;76.10;;;;;;6060118;23;20405;-66
2023/05/03 02:05:46;;;;;;;3.53;2.17;;;15.00;75.80;;;;;;6033244;23;20437;-66
2023/05/03 02:08:15;;;;;;;2.63;2.30;;;15.00;76.00;;;;;;6034692;23;20427;-66
2023/05/03 02:10:44;;;;;;;3.67;2.00;;;15.00;75.90;;;;;;6057940;23;20440;-66
2023/05/03 02:13:12;;;;;;;2.90;2.30;;;15.00;75.90;;;;;;6034598;23;20496;-66
2023/05/03 02:15:42;;;;;;;3.60;2.30;;;15.00;76.10;;;;;;6033536;23;21058;-66
2023/05/03 02:18:10;;;;;;;4.77;3.00;;;15.00;76.00;;;;;;6034482;23;20458;-67
2023/05/03 02:20:38;;;;;;;2.90;2.10;;;15.00;76.10;;;;;;6057393;23;20440;-67
2023/05/03 02:23:07;;;;;;;2.40;2.00;;;14.90;76.00;;;;;;6058008;23;20448;-65
2023/05/03 02:25:35;;;;;;;3.83;2.50;;;14.90;75.90;;;;;;6032936;23;20480;-66
2023/05/03 02:28:04;;;;;;;5.27;2.27;;;14.90;75.90;;;;;;6034488;23;20399;-66
2023/05/03 02:30:32;;;;;;;2.80;2.00;;;14.90;76.10;;;;;;6033945;23;20531;-65
2023/05/03 02:33:02;;;;;;;2.80;2.37;;;14.90;76.10;;;;;;6033736;23;20788;-66
2023/05/03 02:35:31;;;;;;;4.40;2.70;;;14.90;76.10;;;;;;6033727;23;20528;-64
2023/05/03 02:38:00;;;;;;;4.90;2.40;;;14.90;76.20;;;;;;6034161;23;20488;-65
2023/05/03 02:40:28;;;;;;;3.33;2.37;;;14.90;75.90;;;;;;6009856;23;20523;-65
2023/05/03 02:42:57;;;;;;;3.13;2.40;;;14.90;76.20;;;;;;6034134;23;20578;-66
2023/05/03 02:45:29;;;;;;;3.07;2.00;;;14.90;76.10;;;;;;6033262;23;20453;-66
2023/05/03 02:47:57;;;;;;;3.53;2.67;;;14.90;75.90;;;;;;6032613;23;20409;-65
2023/05/03 02:50:28;;;;;;;4.57;2.57;;;14.90;76.00;;;;;;6033921;23;20437;-66
2023/05/03 02:52:57;;;;;;;2.40;1.90;;;14.90;76.00;;;;;;6034026;23;20420;-66
2023/05/03 02:55:25;;;;;;;6.00;3.00;;;14.90;77.30;;;;;;6032587;23;20436;-66
2023/05/03 02:57:55;;;;;;;4.20;2.83;;;14.90;76.10;;;;;;6034099;23;20408;-66
2023/05/03 03:00:23;;;;;;;3.63;2.67;;;14.90;76.10;;;;;;6033717;23;20460;-66
2023/05/03 03:02:51;;;;;;;4.33;2.60;;;14.80;76.10;;;;;;6031097;23;20508;-66
2023/05/03 03:05:21;;;;;;;3.50;2.60;;;14.80;76.20;;;;;;6031193;23;20770;-65
2023/05/03 03:07:52;;;;;;;5.60;2.17;;;14.80;75.90;;;;;;6032075;23;20401;-66
2023/05/03 03:10:20;;;;;;;3.90;3.10;;;14.80;76.20;;;;;;6054222;23;20495;-66
2023/05/03 03:12:49;;;;;;;4.13;2.20;;;14.80;76.10;;;;;;6030834;23;20788;-65
2023/05/03 03:15:27;;;;;;;3.03;2.30;;;14.80;76.10;;;;;;6031103;23;20804;-66
2023/05/03 03:17:56;;;;;;;2.73;2.10;;;14.80;76.10;;;;;;6030436;23;20417;-65
2023/05/03 03:20:26;;;;;;;2.77;2.30;;;14.80;76.10;;;;;;6030516;23;20441;-67
2023/05/03 03:22:56;;;;;;;3.37;2.40;;;14.80;76.20;;;;;;6055464;23;20903;-65
2023/05/03 03:25:24;;;;;;;3.70;2.67;;;14.80;76.20;;;;;;6029253;23;20532;-66
2023/05/03 03:27:56;;;;;;;4.97;2.40;;;14.80;76.20;;;;;;6031358;23;20385;-65
2023/05/03 03:30:25;;;;;;;4.00;2.43;;;14.80;76.10;;;;;;6031486;23;20444;-66
2023/05/03 03:33:06;;;;;;;4.47;2.87;;;14.80;76.10;;;;;;6031825;23;20413;-65
2023/05/03 03:35:40;;;;;;;4.37;3.13;;;14.80;76.30;;;;;;6030188;23;20812;-66
2023/05/03 03:38:11;;;;;;;3.20;2.57;;;14.70;76.00;;;;;;6031123;23;20859;-66
2023/05/03 03:40:47;;;;;;;4.00;2.67;;;14.80;76.10;;;;;;6054216;23;20448;-66
2023/05/03 03:43:16;;;;;;;3.50;3.20;;;14.70;76.10;;;;;;6031903;23;20421;-65
2023/05/03 03:45:46;;;;;;;3.40;2.47;;;14.70;76.00;;;;;;6028967;23;20793;-67
2023/05/03 03:48:16;;;;;;;3.80;2.57;;;14.70;76.10;;;;;;6030900;23;20432;-66
2023/05/03 03:50:46;;;;;;;2.67;2.23;;;14.70;76.10;;;;;;6030407;23;20539;-65
2023/05/03 03:53:16;;;;;;;3.13;2.30;;;14.70;76.00;;;;;;6031657;23;20428;-65
2023/05/03 03:55:44;;;;;;;3.13;2.00;;;14.70;76.20;;;;;;6029226;23;20441;-66
2023/05/03 03:58:14;;;;;;;4.97;2.00;;;14.70;76.30;;;;;;6031258;23;20385;-66
2023/05/03 04:00:43;;;;;;;3.10;2.40;;;14.70;76.20;;;;;;6029986;23;20447;-66
2023/05/03 04:03:16;;;;;;;3.10;2.20;;;14.70;76.20;;;;;;6031630;23;20515;-66
2023/05/03 04:05:45;;;;;;;2.90;2.33;;;14.70;76.10;;;;;;6029851;23;20449;-65
2023/05/03 04:08:16;;;;;;;2.80;2.50;;;14.70;76.20;;;;;;6031661;23;20400;-64
2023/05/03 04:10:45;;;;;;;3.07;2.37;;;14.70;76.10;;;;;;6029916;23;20440;-66
2023/05/03 04:13:13;;;;;;;4.90;2.60;;;14.60;76.10;;;;;;6030809;23;20792;-66
2023/05/03 04:15:42;;;;;;;2.90;2.10;;;14.60;76.30;;;;;;6006428;23;20433;-65
2023/05/03 04:18:10;;;;;;;3.20;2.00;;;14.60;76.00;;;;;;6031801;23;20415;-66
2023/05/03 04:20:41;;;;;;;2.60;2.23;;;14.60;75.90;;;;;;6031235;23;20433;-64
2023/05/03 04:23:10;;;;;;;2.43;2.20;;;14.60;75.90;;;;;;6031878;23;20421;-66
2023/05/03 04:25:47;;;;;;;4.90;2.83;;;14.60;76.10;;;;;;6054615;23;20448;-64
2023/05/03 04:28:18;;;;;;;3.60;2.70;;;14.60;76.20;;;;;;6054739;23;20843;-66
2023/05/03 04:30:49;;;;;;;2.50;2.30;;;14.60;76.10;;;;;;6030270;23;20467;-73
2023/05/03 04:33:23;;;;;;;2.40;1.90;;;14.60;76.10;;;;;;6055484;23;20448;-73
2023/05/03 04:35:53;;;;;;;3.10;2.37;;;14.60;76.30;;;;;;6030882;23;20491;-72
2023/05/03 04:38:22;;;;;;;3.33;2.30;;;14.60;76.00;;;;;;6055036;23;20393;-72
2023/05/03 04:40:52;;;;;;;3.23;2.00;;;14.60;76.20;;;;;;6053744;23;20449;-72
2023/05/03 04:43:20;;;;;;;3.27;2.60;;;14.60;76.30;;;;;;6031983;23;20953;-72
2023/05/03 04:45:52;;;;;;;3.50;2.70;;;14.60;76.30;;;;;;6029677;23;20449;-72
2023/05/03 04:48:23;;;;;;;2.73;2.20;;;14.60;76.30;;;;;;6031893;23;20551;-72
2023/05/03 04:50:52;;;;;;;2.63;2.10;;;14.60;76.20;;;;;;6029272;23;20531;-72
2023/05/03 04:53:22;;;;;;;2.40;1.97;;;14.60;76.10;;;;;;6031156;23;20934;-72
2023/05/03 04:56:06;;;;;;;3.17;2.40;;;14.50;76.20;;;;;;6030065;23;20925;-72
2023/05/03 04:58:38;;;;;;;4.10;2.60;;;14.50;76.20;;;;;;6031101;23;20428;-72
2023/05/03 05:01:07;;;;;;;3.83;2.30;;;14.50;76.20;;;;;;6053531;23;20472;-73
2023/05/03 05:03:36;;;;;;;3.20;2.27;;;14.50;76.30;;;;;;6031531;23;20424;-72
2023/05/03 05:06:11;;;;;;;3.53;2.70;;;14.50;76.20;;;;;;6030815;23;20807;-72
2023/05/03 05:08:41;;;;;;;3.27;2.30;;;14.50;76.40;;;;;;6007498;23;20474;-72
2023/05/03 05:11:14;;;;;;;3.13;2.07;;;14.50;76.30;;;;;;6055978;23;20938;-72
2023/05/03 05:13:43;;;;;;;2.83;2.50;;;14.50;76.30;;;;;;6032777;23;20503;-71
2023/05/03 05:16:12;;;;;;;3.13;2.63;;;14.50;76.20;;;;;;6030989;23;20441;-73
2023/05/03 05:18:44;;;;;;;2.90;2.33;;;14.50;76.30;;;;;;6032173;23;20404;-72
2023/05/03 05:21:17;;;;;;;3.30;2.43;;;14.50;76.40;;;;;;6030437;23;20425;-72
2023/05/03 05:23:46;;;;;;;4.80;2.70;;;14.50;76.40;;;;;;6031758;23;20420;-73
2023/05/03 05:26:16;;;;;;;3.30;2.63;;;14.50;76.40;;;;;;6030088;23;21009;-72
2023/05/03 05:28:45;;;;;;;2.50;2.03;;;14.50;76.40;;;;;;6031015;23;20913;-72
2023/05/03 05:31:14;;;;;;;2.50;2.20;;;14.40;76.20;;;;;;6029136;23;20444;-72
2023/05/03 05:33:43;;;;;;;3.37;2.50;;;14.50;76.40;;;;;;6030114;23;20516;-72
2023/05/03 05:36:13;;;;;;;3.20;2.40;;;14.50;76.50;;;;;;6028686;23;20444;-72
2023/05/03 05:38:42;;;;;;;2.80;1.90;;;14.50;76.40;;;;;;6030269;23;20406;-72
2023/05/03 05:41:11;;;;;;;3.23;2.53;;;14.40;76.40;;;;;;6028280;23;21009;-65
2023/05/03 05:43:44;;;;;;;2.53;2.20;;;14.50;76.30;;;;;;6030567;23;20448;-65
2023/05/03 05:46:13;;;;;;;2.97;2.03;;;14.50;76.40;;;;;;6028741;23;20967;-65
2023/05/03 05:48:42;;;;;;;3.17;2.57;;;14.50;76.50;;;;;;6031821;23;20423;-65
2023/05/03 05:51:11;;;;;;;2.67;2.27;;;14.50;76.70;;;;;;6029399;23;20979;-65
2023/05/03 05:53:40;;;;;;;3.67;3.00;;;14.50;76.60;;;;;;6031369;23;20420;-64
2023/05/03 05:56:10;;;;;;;3.00;2.70;;;14.40;76.30;;;;;;6029754;23;20444;-63
2023/05/03 05:58:38;;;;;;;5.67;3.40;;;14.40;76.20;;;;;;6031438;23;20397;-72
2023/05/03 06:01:09;;;;;;;2.67;2.10;;;14.40;75.70;;;;;;6031211;23;20440;-73
2023/05/03 06:03:39;;;;;;;3.13;2.83;;;14.40;76.30;;;;;;6031817;23;20599;-73
2023/05/03 06:06:09;;;;;;;4.30;2.47;;;14.40;76.00;;;;;;6029626;23;20444;-72
2023/05/03 06:08:37;;;;;;;3.13;2.77;;;14.40;76.20;;;;;;6031242;23;20432;-72
2023/05/03 06:11:06;;;;;;;3.77;2.63;;;14.40;76.10;;;;;;6054303;23;20853;-72
2023/05/03 06:13:37;;;;;;;3.60;2.43;;;14.40;76.20;;;;;;6030940;23;20756;-66
2023/05/03 06:16:09;;;;;;;3.37;2.20;;;14.40;76.30;;;;;;6029692;23;20467;-66
2023/05/03 06:18:38;;;;;;;3.60;2.30;;;14.40;76.30;;;;;;6031375;23;20386;-64
2023/05/03 06:21:08;;;;;;;3.30;2.97;;;14.40;75.90;;;;;;6030383;23;20445;-65
2023/05/03 06:23:38;;;;;;;4.47;2.93;;;14.40;75.90;;;;;;6031713;23;20816;-66
2023/05/03 06:26:08;;;;;;;3.60;3.20;;;14.40;75.80;;;;;;6053802;23;20436;-65
2023/05/03 06:28:37;;;;;;;3.30;2.67;;;14.40;75.80;;;;;;6030798;23;20783;-65
2023/05/03 06:31:05;;;;;;;5.67;3.47;;;14.30;76.30;;;;;;6029850;23;20441;-64
2023/05/03 06:33:35;;;;;;;3.20;2.47;;;14.30;75.20;;;;;;6030688;23;20519;-64
2023/05/03 06:36:05;;;;;;;4.23;3.43;;;14.30;75.30;;;;;;6029996;23;20490;-65
2023/05/03 06:38:34;;;;;;;3.47;2.23;;;14.30;74.70;;;;;;6031627;23;20397;-66
2023/05/03 06:41:04;;;;;;;3.17;2.40;;;14.30;75.20;;;;;;6030187;23;20440;-65
2023/05/03 06:43:33;;;;;;;4.10;2.90;;;14.30;75.50;;;;;;6027417;23;20512;-65
2023/05/03 06:46:03;;;;;;;3.50;2.93;;;14.30;74.50;;;;;;6028156;23;20775;-65
2023/05/03 06:48:32;;;;;;;4.60;3.10;;;14.40;74.70;;;;;;6030870;23;20479;-65
2023/05/03 06:51:02;;;;;;;5.50;4.10;;;14.40;74.50;;;;;;6031408;23;20471;-66
2023/05/03 06:53:30;;;;;;;5.83;3.83;;;14.40;75.80;;;;;;6031253;23;20429;-66
2023/05/03 06:55:58;;;;;;;5.43;3.90;;;14.40;74.10;;;;;;6029622;23;20835;-67
2023/05/03 06:58:26;;;;;;;5.60;4.23;;;14.40;73.10;;;;;;6031243;23;20440;-66
2023/05/03 07:00:55;;;;;;;6.80;3.53;;;14.40;72.40;;;;;;6030104;23;20432;-65
2023/05/03 07:03:23;;;;;;;3.00;2.00;;;14.40;72.90;;;;;;6031283;23;20417;-66
2023/05/03 07:05:52;;;;;;;4.87;3.10;;;14.40;73.90;;;;;;6029897;23;20440;-64
2023/05/03 07:08:22;;;;;;;4.23;3.03;;;14.40;74.10;;;;;;6031127;23;20424;-64
2023/05/03 07:10:50;;;;;;;3.37;2.77;;;14.40;74.60;;;;;;6030330;23;20465;-65
2023/05/03 07:13:18;;;;;;;5.33;3.07;;;14.40;74.80;;;;;;6031251;23;20522;-73
2023/05/03 07:15:47;;;;;;;4.67;2.83;;;14.50;74.80;;;;;;6006311;23;20432;-74
2023/05/03 07:18:16;;;;;;;4.87;3.47;;;14.50;74.90;;;;;;6031392;23;20780;-72
2023/05/03 07:20:45;;;;;;;2.90;2.50;;;14.50;74.90;;;;;;6056466;23;20437;-72
2023/05/03 07:23:13;;;;;;;3.07;2.60;;;14.50;75.20;;;;;;6030855;23;20416;-72
2023/05/03 07:25:44;;;;;;;4.77;3.10;;;14.50;74.80;;;;;;6029276;23;20432;-72
2023/05/03 07:28:12;;;;;;;3.40;2.67;;;14.50;74.80;;;;;;6030743;23;20971;-73
2023/05/03 07:30:41;;;;;;;4.03;2.83;;;14.50;74.70;;;;;;6031042;23;20468;-73
2023/05/03 07:33:09;;;;;;;2.93;2.60;;;14.50;74.90;;;;;;6030741;23;20421;-72
2023/05/03 07:35:38;;;;;;;3.67;2.20;;;14.50;74.90;;;;;;6030652;23;20528;-72
2023/05/03 07:38:06;;;;;;;3.53;2.70;;;14.50;75.00;;;;;;6029899;23;20395;-72
2023/05/03 07:40:35;;;;;;;3.40;2.33;;;14.50;74.90;;;;;;6028690;23;20436;-73
2023/05/03 07:43:05;;;;;;;5.30;2.90;;;14.50;74.90;;;;;;6029656;23;20421;-72
2023/05/03 07:45:33;;;;;;;3.40;2.50;;;14.50;75.00;;;;;;6028463;23;20547;-65
2023/05/03 07:48:03;;;;;;;2.83;2.33;;;14.60;75.10;;;;;;6053370;23;20437;-66
2023/05/03 07:50:31;;;;;;;3.63;3.20;;;14.60;74.80;;;;;;6030262;23;20484;-66
2023/05/03 07:53:00;;;;;;;3.33;3.03;;;14.60;74.90;;;;;;6030260;23;20433;-64
2023/05/03 07:55:30;;;;;;;4.10;2.80;;;14.60;75.00;;;;;;6028284;23;20428;-64
2023/05/03 07:57:58;;;;;;;4.27;2.80;;;14.60;75.10;;;;;;6031448;23;20397;-66
2023/05/03 08:00:28;;;;;;;3.07;2.40;;;14.60;74.90;;;;;;6030051;23;20445;-66
2023/05/03 08:02:57;;;;;;;2.67;2.07;;;14.60;75.00;;;;;;6030539;23;20441;-65
2023/05/03 08:05:25;;;;;;;3.23;2.43;;;14.60;74.90;;;;;;6029862;23;20468;-73
2023/05/03 08:07:54;;;;;;;3.10;2.43;;;14.60;74.90;;;;;;6031135;23;20471;-73
2023/05/03 08:10:23;;;;;;;4.37;2.83;;;14.60;75.00;;;;;;6029458;23;20574;-73
2023/05/03 08:12:51;;;;;;;2.40;2.13;;;14.60;74.90;;;;;;6030077;23;20521;-73
2023/05/03 08:15:19;;;;;;;3.63;2.50;;;14.60;74.90;;;;;;6029165;23;20843;-73
2023/05/03 08:17:49;;;;;;;2.43;2.10;;;14.60;74.70;;;;;;6054141;23;20469;-73
2023/05/03 08:20:18;;;;;;;3.10;2.47;;;14.60;74.80;;;;;;6131285;23;20447;-72
2023/05/03 08:22:47;;;;;;;3.87;2.47;;;14.60;75.00;;;;;;6030657;23;20461;-73
2023/05/03 08:25:16;;;;;;;3.20;2.40;;;14.60;74.80;;;;;;6054498;23;20437;-73
2023/05/03 08:27:45;;;;;;;4.50;2.23;;;14.60;74.90;;;;;;6026105;23;20436;-71
2023/05/03 08:30:16;;;;;;;3.13;2.30;;;14.60;74.70;;;;;;6028999;23;20432;-65
2023/05/03 08:32:45;;;;;;;2.73;2.37;;;14.60;74.80;;;;;;6054390;23;20425;-66
2023/05/03 08:35:15;;;;;;;3.30;2.40;;;14.60;74.70;;;;;;6028287;23;20508;-65
2023/05/03 08:37:45;;;;;;;3.50;2.80;;;14.60;74.80;;;;;;6030730;23;20401;-65
2023/05/03 08:40:14;;;;;;;2.30;2.00;;;14.60;74.60;;;;;;6054167;23;20445;-65
2023/05/03 08:42:44;;;;;;;2.83;2.33;;;14.60;74.50;;;;;;6054850;23;20421;-65
2023/05/03 08:45:15;;;;;;;4.13;2.60;;;14.60;74.40;;;;;;6032693;23;20424;-73
2023/05/03 08:47:44;;;;;;;3.37;2.90;;;14.50;74.50;;;;;;6031347;23;20444;-72
2023/05/03 08:50:15;;;;;;;3.40;2.77;;;14.60;74.40;;;;;;6032250;23;20425;-73
2023/05/03 08:52:44;;;;;;;6.27;2.87;;;14.60;74.50;;;;;;6032952;23;20992;-65
2023/05/03 08:55:13;;;;;;;2.47;2.17;;;14.60;74.70;;;;;;6056202;23;20400;-65
2023/05/03 08:57:41;;;;;;;3.03;2.23;;;14.60;74.70;;;;;;6031190;23;20409;-64
2023/05/03 09:00:11;;;;;;;3.87;2.73;;;14.60;76.10;;;;;;6030418;23;20511;-64
2023/05/03 09:02:41;;;;;;;3.77;2.50;;;14.50;74.60;;;;;;6053866;23;20455;-65
2023/05/03 09:05:33;;;;;;;3.80;2.53;;;14.50;74.70;;;;;;6030674;23;21211;-65
2023/05/03 09:08:03;;;;;;;3.00;2.60;;;14.50;74.70;;;;;;6032205;23;20425;-65
2023/05/03 09:10:33;;;;;;;3.30;2.57;;;14.50;74.60;;;;;;6055132;23;20432;-67
2023/05/03 09:13:02;;;;;;;3.20;2.50;;;14.50;74.60;;;;;;6028512;23;20425;-66
2023/05/03 09:15:31;;;;;;;3.20;2.90;;;14.50;74.70;;;;;;6029997;23;20440;-64
2023/05/03 09:18:12;;;;;;;5.10;2.73;;;14.50;74.70;;;;;;6055056;23;20442;-64
2023/05/03 09:20:49;;;;;;;2.80;2.20;;;14.50;74.80;;;;;;6029988;23;20452;-64
2023/05/03 09:23:28;;;;;;;3.07;2.10;;;14.50;74.70;;;;;;6031293;23;20408;-64
2023/05/03 09:25:57;;;;;;;3.00;2.30;;;14.50;74.80;;;;;;6027588;23;20833;-64
2023/05/03 09:28:26;;;;;;;3.27;2.40;;;14.50;74.50;;;;;;6055559;23;20452;-65
2023/05/03 09:31:06;;;;;;;3.60;2.10;;;14.50;74.60;;;;;;6029285;23;21120;-72
2023/05/03 09:33:35;;;;;;;2.53;2.30;;;14.50;74.80;;;;;;6029140;23;20759;-72
2023/05/03 09:36:06;;;;;;;2.40;1.83;;;14.50;74.70;;;;;;6029744;23;20560;-73
2023/05/03 09:38:36;;;;;;;3.07;2.43;;;14.50;74.70;;;;;;6030306;23;20390;-72
2023/05/03 09:41:05;;;;;;;3.13;2.60;;;14.50;74.70;;;;;;6055384;23;20441;-72
2023/05/03 09:43:34;;;;;;;3.73;2.47;;;14.50;74.70;;;;;;6056688;23;20496;-73
2023/05/03 09:46:10;;;;;;;3.47;2.83;;;14.50;74.50;;;;;;6028621;23;20816;-73
2023/05/03 09:48:40;;;;;;;3.00;2.37;;;14.50;74.80;;;;;;6031564;23;20474;-73
2023/05/03 09:51:11;;;;;;;3.00;2.67;;;14.50;74.60;;;;;;6030197;23;20955;-72
2023/05/03 09:53:40;;;;;;;2.53;2.27;;;14.50;74.70;;;;;;6031187;23;20432;-72
2023/05/03 09:56:12;;;;;;;3.43;2.17;;;14.50;74.70;;;;;;6028494;23;20437;-72
2023/05/03 09:58:44;;;;;;;3.77;2.70;;;14.50;74.90;;;;;;6057640;23;20365;-72
2023/05/03 10:01:14;;;;;;;5.13;2.60;;;14.50;74.80;;;;;;6030423;23;20440;-72
2023/05/03 10:03:46;;;;;;;3.63;2.93;;;14.50;74.50;;;;;;6056472;23;20887;-73
2023/05/03 10:06:25;;;;;;;2.90;2.40;;;14.50;74.60;;;;;;6029740;23;20941;-72
2023/05/03 10:09:01;;;;;;;3.00;2.43;;;14.50;74.80;;;;;;6056399;23;20417;-73
2023/05/03 10:11:29;;;;;;;3.40;2.50;;;14.50;74.80;;;;;;6055236;23;20440;-73
2023/05/03 10:13:58;;;;;;;3.30;2.80;;;14.50;74.80;;;;;;6053024;23;20401;-66
2023/05/03 10:16:32;;;;;;;2.20;1.90;;;14.50;74.90;;;;;;6027357;23;20420;-64
2023/05/03 10:19:07;;;;;;;3.97;3.00;;;14.50;74.90;;;;;;6055686;23;20422;-65
2023/05/03 10:21:56;;;;;;;3.87;2.30;;;14.50;74.30;;;;;;6031250;23;20716;-65
2023/05/03 10:24:24;;;;;;;2.80;2.40;;;14.50;74.70;;;;;;6028780;23;20389;-66
2023/05/03 10:26:55;;;;;;;3.50;2.83;;;14.50;74.10;;;;;;6030733;23;20935;-65
2023/05/03 10:29:47;;;;;;;3.10;2.30;;;14.50;74.80;;;;;;6030134;23;20417;-65
2023/05/03 10:32:34;;;;;;;3.50;2.77;;;14.50;74.70;;;;;;6055438;23;20455;-66
2023/05/03 10:35:06;;;;;;;3.30;2.23;;;14.50;74.60;;;;;;6030715;23;20441;-66
2023/05/03 10:37:38;;;;;;;4.60;3.70;;;14.40;74.40;;;;;;6032301;23;20450;-64
2023/05/03 10:40:10;;;;;;;2.90;2.27;;;14.50;74.10;;;;;;6053786;23;20436;-66
2023/05/03 10:42:40;;;;;;;3.87;2.63;;;14.50;74.60;;;;;;6031117;23;20432;-66
2023/05/03 10:45:11;;;;;;;4.67;2.67;;;14.50;74.50;;;;;;6029002;23;20472;-66
2023/05/03 10:47:40;;;;;;;4.70;2.90;;;14.50;74.70;;;;;;6055062;23;20455;-66
2023/05/03 10:50:27;;;;;;;3.73;2.43;;;14.50;74.90;;;;;;6053840;23;20445;-66
2023/05/03 10:52:57;;;;;;;3.13;2.57;;;14.50;75.00;;;;;;6031838;23;20677;-66
2023/05/03 10:55:26;;;;;;;3.90;2.90;;;14.50;74.70;;;;;;6029705;23;20437;-66
2023/05/03 10:57:57;;;;;;;3.97;2.97;;;14.50;74.30;;;;;;6031061;23;20397;-66
2023/05/03 11:00:33;;;;;;;3.73;2.30;;;14.50;74.90;;;;;;6030459;23;20949;-65
2023/05/03 11:03:30;;;;;;;3.17;2.40;;;14.50;75.00;;;;;;6030507;23;20413;-66
2023/05/03 11:05:58;;;;;;;2.10;1.87;;;14.50;74.70;;;;;;6016777;23;20548;-66
2023/05/03 11:08:29;;;;;;;3.30;2.30;;;14.50;75.20;;;;;;6031720;23;20484;-64
2023/05/03 11:11:01;;;;;;;2.50;2.30;;;14.50;75.00;;;;;;6031062;23;20491;-64
2023/05/03 11:13:29;;;;;;;4.10;2.30;;;14.50;74.50;;;;;;6031329;23;20413;-66
2023/05/03 11:15:58;;;;;;;5.27;2.50;;;14.50;75.30;;;;;;6028531;23;20527;-64
2023/05/03 11:18:27;;;;;;;2.83;2.50;;;14.50;75.10;;;;;;6031252;23;20396;-66
2023/05/03 11:20:56;;;;;;;4.40;2.20;;;14.50;74.90;;;;;;6028479;23;20445;-65
2023/05/03 11:23:26;;;;;;;3.30;2.40;;;14.50;74.80;;;;;;6054138;23;20409;-64
2023/05/03 11:25:57;;;;;;;3.43;2.60;;;14.50;74.50;;;;;;6029512;23;20524;-65
2023/05/03 11:28:26;;;;;;;3.90;2.40;;;14.50;76.10;;;;;;6055127;23;20381;-65
2023/05/03 11:30:55;;;;;;;3.87;2.70;;;14.50;74.90;;;;;;6055448;23;20533;-66
2023/05/03 11:33:24;;;;;;;3.90;2.97;;;14.50;74.30;;;;;;6055296;23;20444;-64
2023/05/03 11:35:56;;;;;;;3.00;2.40;;;14.50;74.50;;;;;;6030455;23;20468;-65
2023/05/03 11:38:24;;;;;;;3.40;2.43;;;14.50;74.60;;;;;;6030268;23;20382;-66
2023/05/03 11:40:53;;;;;;;7.60;5.70;;;14.50;75.20;;;;;;6029377;23;20448;-65
2023/05/03 11:43:24;;;;;;;5.33;4.83;;;14.40;66.50;;;;;;6029438;23;21079;-65
2023/05/03 11:45:56;;;;;;;6.30;4.27;;;14.40;67.00;;;;;;6028743;23;20437;-65
2023/05/03 11:48:26;;;;;;;6.60;3.27;;;14.40;68.60;;;;;;6029960;23;20381;-65
2023/05/03 11:50:55;;;;;;;3.63;2.90;;;14.50;70.50;;;;;;6054285;23;20898;-65
2023/05/03 11:53:25;;;;;;;3.97;3.57;;;14.50;71.20;;;;;;6054772;23;20520;-64
2023/05/03 11:55:54;;;;;;;4.60;3.63;;;14.50;71.20;;;;;;6028560;23;20531;-65
2023/05/03 11:58:25;;;;;;;2.97;2.67;;;14.50;71.90;;;;;;6028640;23;20365;-65
2023/05/03 12:00:55;;;;;;;4.40;3.23;;;14.50;72.10;;;;;;6029730;23;20439;-65
2023/05/03 12:03:25;;;;;;;4.07;3.27;;;14.50;72.30;;;;;;6006796;23;20824;-65
2023/05/03 12:05:58;;;;;;;6.07;3.40;;;14.60;72.40;;;;;;6054083;23;20499;-65
2023/05/03 12:08:29;;;;;;;5.07;3.23;;;14.60;71.30;;;;;;6031139;23;20875;-65
2023/05/03 12:11:01;;;;;;;5.03;3.90;;;14.60;72.10;;;;;;6026940;23;20480;-65
2023/05/03 12:13:36;;;;;;;6.90;3.70;;;14.60;71.50;;;;;;6030837;23;20424;-72
2023/05/03 12:16:08;;;;;;;3.73;2.77;;;14.60;70.40;;;;;;6053119;23;20950;-72
2023/05/03 12:18:52;;;;;;;5.97;2.73;;;14.60;71.60;;;;;;6030663;23;20396;-72
2023/05/03 12:21:25;;;;;;;4.70;2.80;;;14.60;72.00;;;;;;6031742;23;20752;-72
2023/05/03 12:23:56;;;;;;;3.80;2.90;;;14.60;72.40;;;;;;6031733;23;20711;-71
2023/05/03 12:26:28;;;;;;;4.07;3.07;;;14.60;71.70;;;;;;6030644;23;20421;-72
2023/05/03 12:28:58;;;;;;;4.70;3.10;;;14.60;71.80;;;;;;6032138;23;20416;-72
2023/05/03 12:31:29;;;;;;;4.13;2.40;;;14.60;72.20;;;;;;6030427;23;20989;-72
2023/05/03 12:33:59;;;;;;;6.13;3.23;;;14.60;72.10;;;;;;6055399;23;20873;-72
2023/05/03 12:36:48;;;;;;;3.77;3.10;;;14.60;72.50;;;;;;6032267;23;20749;-73
2023/05/03 12:39:16;;;;;;;3.97;3.40;;;14.60;71.80;;;;;;6055674;23;20483;-73
2023/05/03 12:41:49;;;;;;;3.87;2.67;;;14.70;72.80;;;;;;6031201;23;20541;-72
2023/05/03 12:44:22;;;;;;;3.57;2.93;;;14.70;72.50;;;;;;6026586;23;20830;-72
2023/05/03 12:46:51;;;;;;;2.57;2.33;;;14.70;72.50;;;;;;6030112;23;20421;-72
2023/05/03 12:49:20;;;;;;;3.30;2.50;;;14.70;73.80;;;;;;6029700;23;20392;-72
2023/05/03 12:51:51;;;;;;;3.60;3.00;;;14.70;72.50;;;;;;6129363;23;20451;-72
2023/05/03 12:54:40;;;;;;;6.10;3.93;;;14.70;71.90;;;;;;6052345;23;20449;-73
2023/05/03 12:57:09;;;;;;;3.40;2.90;;;14.70;71.10;;;;;;6056500;23;20863;-73
2023/05/03 12:59:44;;;;;;;6.97;3.70;;;14.80;71.90;;;;;;6030629;23;20447;-73
2023/05/03 13:02:20;;;;;;;4.40;4.00;;;14.80;70.10;;;;;;6028907;23;20934;-72
2023/05/03 13:04:54;;;;;;;6.57;3.73;;;14.90;69.80;;;;;;6028111;23;21005;-73